Time;durP1;ratioP1;P1;durP2;ratioP2;P2;SDS_P1;SDS_P2;PMS_P1;PMS_P2;Temp;Humidity;BMP_temperature;BMP_pressure;BME280_temperature;BME280_humidity;BME280_pressure;Samples;Min_cycle;Max_cycle;Signal;HPM_P1;HPM_P2
2020/12/11 00:00:37;;;;;;;3.35;1.80;;;20.80;49.20;;;;;;5111687;27;20023;-57
2020/12/11 00:03:03;;;;;;;3.47;1.83;;;20.80;49.20;;;;;;5116433;27;20022;-55
2020/12/11 00:05:28;;;;;;;3.72;2.25;;;20.80;49.20;;;;;;5118190;27;20019;-58
2020/12/11 00:07:54;;;;;;;4.45;1.80;;;20.80;49.20;;;;;;5123656;27;21255;-58
2020/12/11 00:10:20;;;;;;;3.35;2.17;;;20.80;49.20;;;;;;5114894;27;20043;-60
2020/12/11 00:12:50;;;;;;;2.70;1.70;;;20.80;49.30;;;;;;5126188;27;20418;-59
2020/12/11 00:15:16;;;;;;;2.70;1.88;;;20.80;49.30;;;;;;5131705;27;20026;-58
2020/12/11 00:17:42;;;;;;;2.28;1.70;;;20.70;49.20;;;;;;5134908;27;20388;-57
2020/12/11 00:20:07;;;;;;;3.05;2.10;;;20.70;49.20;;;;;;5126687;27;20027;-58
2020/12/11 00:22:33;;;;;;;3.95;2.05;;;20.70;49.20;;;;;;5118029;27;20028;-60
2020/12/11 00:24:59;;;;;;;3.10;2.00;;;20.70;49.30;;;;;;5123829;27;20023;-57
2020/12/11 00:27:25;;;;;;;3.05;2.00;;;20.70;49.20;;;;;;5119386;27;20092;-57
2020/12/11 00:29:51;;;;;;;2.92;1.80;;;20.70;49.30;;;;;;5121570;27;20048;-58
2020/12/11 00:32:16;;;;;;;3.25;2.00;;;20.70;49.30;;;;;;5115583;27;20115;-58
2020/12/11 00:34:42;;;;;;;3.22;1.77;;;20.70;49.40;;;;;;5118392;27;20035;-58
2020/12/11 00:37:08;;;;;;;3.20;1.90;;;20.60;49.30;;;;;;5114942;27;20111;-57
2020/12/11 00:39:33;;;;;;;3.97;1.80;;;20.60;49.30;;;;;;5127361;27;20624;-59
2020/12/11 00:41:59;;;;;;;3.22;2.03;;;20.60;49.30;;;;;;5123741;27;20362;-57
2020/12/11 00:44:25;;;;;;;3.20;1.92;;;20.60;49.40;;;;;;5137530;27;20049;-58
2020/12/11 00:46:50;;;;;;;3.40;1.95;;;20.60;49.40;;;;;;5119385;27;20141;-58
2020/12/11 00:49:16;;;;;;;3.00;1.90;;;20.60;49.40;;;;;;5144348;27;20524;-57
2020/12/11 00:51:42;;;;;;;4.10;2.03;;;20.60;49.40;;;;;;5131813;27;20031;-58
2020/12/11 00:54:08;;;;;;;3.20;2.08;;;20.50;49.40;;;;;;5127292;27;20042;-57
2020/12/11 00:56:33;;;;;;;2.72;1.80;;;20.50;49.40;;;;;;5132277;27;20029;-59
2020/12/11 00:58:59;;;;;;;2.70;1.80;;;20.50;49.40;;;;;;5124986;27;20488;-58
2020/12/11 01:01:24;;;;;;;2.83;1.63;;;20.50;49.40;;;;;;5111260;27;20055;-59
2020/12/11 01:03:50;;;;;;;2.10;1.58;;;20.50;49.40;;;;;;5127427;27;20398;-57
2020/12/11 01:06:16;;;;;;;2.80;1.80;;;20.50;49.40;;;;;;5117448;27;20291;-58
2020/12/11 01:08:41;;;;;;;2.97;1.77;;;20.50;49.40;;;;;;5125736;27;20031;-58
2020/12/11 01:11:07;;;;;;;3.15;1.90;;;20.50;49.40;;;;;;5126629;27;20118;-57
2020/12/11 01:13:33;;;;;;;2.47;1.52;;;20.50;49.50;;;;;;5124857;27;20394;-56
2020/12/11 01:15:58;;;;;;;2.63;1.65;;;20.50;49.50;;;;;;5123379;27;20059;-57
2020/12/11 01:18:24;;;;;;;2.97;1.70;;;20.40;49.50;;;;;;5130079;27;20175;-57
2020/12/11 01:20:50;;;;;;;2.60;1.80;;;20.40;49.40;;;;;;5124591;27;20412;-59
2020/12/11 01:23:15;;;;;;;2.83;1.55;;;20.40;49.40;;;;;;5128623;27;20016;-57
2020/12/11 01:25:41;;;;;;;3.28;1.77;;;20.40;49.50;;;;;;5124183;27;20182;-60
2020/12/11 01:28:07;;;;;;;3.22;1.80;;;20.40;49.50;;;;;;5123371;27;20051;-59
2020/12/11 01:30:32;;;;;;;3.40;1.70;;;20.40;49.50;;;;;;5115944;27;20122;-58
2020/12/11 01:32:58;;;;;;;2.70;1.70;;;20.40;49.50;;;;;;5131408;27;20034;-59
2020/12/11 01:35:23;;;;;;;3.08;1.80;;;20.40;49.50;;;;;;5124763;27;20027;-58
2020/12/11 01:37:49;;;;;;;3.10;1.65;;;20.40;49.50;;;;;;5135881;27;20050;-56
2020/12/11 01:40:15;;;;;;;2.92;1.75;;;20.40;49.60;;;;;;5118109;27;20032;-59
2020/12/11 01:42:43;;;;;;;2.95;1.70;;;20.40;49.60;;;;;;5120998;27;20411;-59
2020/12/11 01:45:09;;;;;;;2.83;1.87;;;20.40;49.60;;;;;;5119457;27;20218;-57
2020/12/11 01:47:44;;;;;;;2.85;1.80;;;20.30;49.50;;;;;;5126633;27;20027;-58
2020/12/11 01:50:18;;;;;;;2.85;1.63;;;20.40;49.60;;;;;;5123215;27;20035;-58
2020/12/11 01:52:49;;;;;;;2.92;1.63;;;20.40;49.60;;;;;;5116111;27;20581;-60
2020/12/11 01:55:14;;;;;;;3.00;1.80;;;20.40;49.60;;;;;;5123264;27;20470;-58
2020/12/11 01:57:53;;;;;;;2.78;1.63;;;20.30;49.60;;;;;;5116259;27;20033;-57
2020/12/11 02:00:20;;;;;;;2.43;1.50;;;20.30;49.60;;;;;;5125328;27;20031;-57
2020/12/11 02:02:47;;;;;;;3.10;1.80;;;20.30;49.60;;;;;;5128141;27;20345;-59
2020/12/11 02:05:13;;;;;;;2.47;1.70;;;20.30;49.60;;;;;;5113455;27;20478;-55
2020/12/11 02:07:39;;;;;;;2.63;1.75;;;20.30;49.70;;;;;;5114817;27;20172;-59
2020/12/11 02:10:06;;;;;;;3.10;2.10;;;20.30;49.60;;;;;;5124293;27;20027;-57
2020/12/11 02:12:32;;;;;;;3.40;1.65;;;20.30;49.70;;;;;;5110550;27;20027;-56
2020/12/11 02:14:58;;;;;;;2.30;1.50;;;20.30;49.70;;;;;;5109310;27;20032;-59
2020/12/11 02:17:26;;;;;;;3.17;1.70;;;20.30;49.70;;;;;;5125420;27;20027;-58
2020/12/11 02:19:56;;;;;;;2.67;1.60;;;20.30;49.70;;;;;;5128853;27;20043;-55
2020/12/11 02:22:21;;;;;;;;;;;20.20;49.70;;;;;;5124902;27;20035;-57
2020/12/11 02:24:49;;;;;;;2.20;1.55;;;20.20;49.70;;;;;;5137610;27;19918;-58
2020/12/11 02:27:15;;;;;;;2.50;1.80;;;20.20;49.70;;;;;;5122071;27;20470;-55
2020/12/11 02:29:40;;;;;;;2.33;1.52;;;20.20;49.70;;;;;;5121413;27;20034;-60
2020/12/11 02:32:06;;;;;;;2.75;1.70;;;20.20;49.70;;;;;;5118510;27;20517;-56
2020/12/11 02:34:31;;;;;;;2.40;1.67;;;20.20;49.70;;;;;;5107589;27;20028;-60
2020/12/11 02:37:02;;;;;;;2.22;1.55;;;20.20;49.70;;;;;;5123755;27;20386;-58
2020/12/11 02:39:28;;;;;;;2.78;1.92;;;20.20;49.70;;;;;;5126344;27;20381;-59
2020/12/11 02:41:54;;;;;;;2.72;1.70;;;20.20;49.70;;;;;;5122104;27;20027;-59
2020/12/11 02:44:20;;;;;;;2.55;1.60;;;20.20;49.70;;;;;;5118089;27;20031;-57
2020/12/11 02:46:45;;;;;;;2.80;1.63;;;20.20;49.70;;;;;;5103538;27;20032;-58
2020/12/11 02:49:11;;;;;;;2.47;1.60;;;20.20;49.80;;;;;;5122893;27;20053;-58
2020/12/11 02:51:37;;;;;;;3.40;1.90;;;20.10;49.80;;;;;;5127634;27;20073;-59
2020/12/11 02:54:02;;;;;;;2.30;1.55;;;20.10;49.70;;;;;;5134268;27;20022;-59
2020/12/11 02:56:28;;;;;;;2.50;1.63;;;20.10;49.70;;;;;;5129212;27;20118;-59
2020/12/11 02:58:54;;;;;;;2.50;1.60;;;20.10;49.70;;;;;;5128801;27;20022;-59
2020/12/11 03:01:19;;;;;;;2.20;1.40;;;20.10;49.70;;;;;;5133024;27;20540;-60
2020/12/11 03:03:45;;;;;;;2.70;1.50;;;20.10;49.80;;;;;;5123537;27;20290;-58
2020/12/11 03:06:11;;;;;;;2.40;1.55;;;20.10;49.80;;;;;;5124579;27;20070;-59
2020/12/11 03:08:36;;;;;;;2.60;1.58;;;20.10;49.80;;;;;;5122574;27;20026;-57
2020/12/11 03:11:02;;;;;;;3.50;1.55;;;20.10;49.80;;;;;;5119317;27;20059;-56
2020/12/11 03:13:28;;;;;;;2.20;1.40;;;20.10;49.80;;;;;;5111130;27;20814;-59
2020/12/11 03:15:53;;;;;;;1.95;1.30;;;20.10;49.80;;;;;;5125282;27;20061;-56
2020/12/11 03:18:19;;;;;;;3.75;1.55;;;20.00;49.70;;;;;;5133544;27;20058;-58
2020/12/11 03:20:45;;;;;;;2.22;1.40;;;20.10;49.80;;;;;;5115716;27;20102;-56
2020/12/11 03:23:11;;;;;;;2.33;1.50;;;20.10;49.80;;;;;;5118728;27;20030;-59
2020/12/11 03:25:36;;;;;;;2.50;1.40;;;20.10;49.80;;;;;;5106162;27;20035;-59
2020/12/11 03:28:02;;;;;;;2.30;1.55;;;20.10;49.80;;;;;;5133875;27;20027;-56
2020/12/11 03:30:29;;;;;;;2.03;1.40;;;20.00;49.80;;;;;;5126981;27;20039;-58
2020/12/11 03:32:54;;;;;;;2.13;1.33;;;20.00;49.70;;;;;;5121232;27;20023;-59
2020/12/11 03:35:20;;;;;;;2.40;1.52;;;20.00;49.80;;;;;;5119196;27;20449;-59
2020/12/11 03:37:46;;;;;;;2.28;1.50;;;20.00;49.80;;;;;;5114343;27;20029;-56
2020/12/11 03:40:11;;;;;;;2.03;1.42;;;20.00;49.80;;;;;;5130003;27;20075;-58
2020/12/11 03:42:37;;;;;;;2.20;1.40;;;20.00;49.80;;;;;;5118939;27;20074;-58
2020/12/11 03:45:03;;;;;;;1.90;1.35;;;20.00;49.80;;;;;;5124112;27;20037;-58
2020/12/11 03:47:30;;;;;;;2.55;1.67;;;20.00;49.80;;;;;;5091491;27;20027;-57
2020/12/11 03:49:56;;;;;;;2.22;1.50;;;20.00;49.80;;;;;;5121256;27;20031;-57
2020/12/11 03:52:21;;;;;;;2.15;1.30;;;20.00;49.80;;;;;;5132996;27;20039;-59
2020/12/11 03:54:47;;;;;;;2.22;1.45;;;20.00;49.90;;;;;;5138458;27;20554;-58
2020/12/11 03:57:12;;;;;;;2.20;1.40;;;20.00;49.80;;;;;;5116886;27;20034;-58
2020/12/11 03:59:38;;;;;;;2.00;1.30;;;20.00;49.80;;;;;;5135007;27;20037;-59
2020/12/11 04:02:04;;;;;;;1.85;1.40;;;20.00;49.80;;;;;;5135029;27;20019;-58
2020/12/11 04:04:29;;;;;;;2.40;1.70;;;20.00;49.90;;;;;;5133565;27;20114;-59
2020/12/11 04:06:55;;;;;;;1.80;1.40;;;19.90;49.80;;;;;;5130139;27;20561;-56
2020/12/11 04:09:21;;;;;;;1.88;1.20;;;19.90;49.80;;;;;;5137529;27;20027;-59
2020/12/11 04:11:46;;;;;;;2.03;1.45;;;19.90;49.80;;;;;;5135495;27;20525;-58
2020/12/11 04:14:12;;;;;;;2.80;1.50;;;19.90;49.80;;;;;;5127192;27;20110;-58
2020/12/11 04:16:38;;;;;;;2.00;1.30;;;19.90;49.80;;;;;;5122443;27;20058;-59
2020/12/11 04:19:03;;;;;;;2.40;1.33;;;19.90;49.80;;;;;;5136678;27;20027;-56
2020/12/11 04:21:29;;;;;;;2.38;1.35;;;19.90;49.80;;;;;;5128697;27;20096;-59
2020/12/11 04:23:55;;;;;;;1.75;1.17;;;19.90;49.80;;;;;;5125836;27;20028;-58
2020/12/11 04:26:20;;;;;;;1.80;1.23;;;19.90;50.30;;;;;;5130081;27;20079;-59
2020/12/11 04:28:46;;;;;;;1.83;1.20;;;19.90;49.80;;;;;;5120516;27;20054;-58
2020/12/11 04:31:11;;;;;;;1.95;1.27;;;19.90;49.80;;;;;;5126276;27;20438;-58
2020/12/11 04:33:37;;;;;;;1.75;1.30;;;19.90;49.80;;;;;;5119431;27;20084;-56
2020/12/11 04:36:03;;;;;;;2.33;1.40;;;19.90;49.80;;;;;;5117128;27;20032;-58
2020/12/11 04:38:29;;;;;;;1.77;1.23;;;19.90;49.80;;;;;;5114982;27;20027;-59
2020/12/11 04:40:59;;;;;;;1.95;1.23;;;19.90;49.80;;;;;;5123661;27;20024;-56
2020/12/11 04:43:25;;;;;;;1.75;1.10;;;19.90;49.80;;;;;;5137423;27;20066;-59
2020/12/11 04:45:51;;;;;;;1.70;1.10;;;19.90;49.80;;;;;;5120803;27;20031;-59
2020/12/11 04:48:17;;;;;;;2.03;1.30;;;19.90;49.80;;;;;;5121420;27;20510;-58
2020/12/11 04:50:44;;;;;;;2.17;1.35;;;19.90;49.80;;;;;;5122218;27;20487;-57
2020/12/11 04:53:14;;;;;;;2.00;1.20;;;19.90;49.90;;;;;;5130919;27;20480;-58
2020/12/11 04:55:46;;;;;;;1.73;1.20;;;19.90;49.80;;;;;;5119949;27;20504;-59
2020/12/11 04:58:16;;;;;;;1.65;1.17;;;19.90;49.80;;;;;;5134093;27;20023;-59
2020/12/11 05:00:42;;;;;;;1.75;1.17;;;19.90;49.90;;;;;;5130199;27;20033;-59
2020/12/11 05:03:15;;;;;;;2.08;1.20;;;19.90;49.90;;;;;;5129925;27;20454;-59
2020/12/11 05:05:40;;;;;;;1.90;1.40;;;19.90;49.90;;;;;;5134661;27;20051;-58
2020/12/11 05:08:19;;;;;;;1.98;1.23;;;19.90;49.90;;;;;;5133484;27;20095;-56
2020/12/11 05:10:48;;;;;;;1.65;1.10;;;19.90;50.00;;;;;;5127750;27;20027;-59
2020/12/11 05:13:23;;;;;;;2.95;1.10;;;19.80;50.00;;;;;;5117449;27;20060;-59
2020/12/11 05:16:10;;;;;;;2.00;1.20;;;19.90;50.10;;;;;;5123803;27;20043;-59
2020/12/11 05:18:36;;;;;;;2.03;1.20;;;19.80;50.10;;;;;;5123067;27;20056;-59
2020/12/11 05:21:20;;;;;;;1.85;1.17;;;19.90;50.20;;;;;;5124288;27;20030;-60
2020/12/11 05:23:58;;;;;;;2.22;1.23;;;19.80;50.10;;;;;;5134914;27;20043;-58
2020/12/11 05:26:24;;;;;;;2.00;1.10;;;19.80;50.20;;;;;;5133720;27;20423;-59
2020/12/11 05:28:50;;;;;;;1.70;1.13;;;19.90;50.20;;;;;;5125499;27;20026;-59
2020/12/11 05:31:16;;;;;;;1.83;1.20;;;19.80;50.10;;;;;;5128337;27;20428;-58
2020/12/11 05:34:08;;;;;;;1.50;1.10;;;19.80;50.20;;;;;;5121658;27;20521;-60
2020/12/11 05:36:47;;;;;;;1.90;1.13;;;19.80;50.20;;;;;;5126114;27;20019;-59
2020/12/11 05:39:34;;;;;;;1.52;1.00;;;19.80;50.20;;;;;;5126430;27;20497;-59
2020/12/11 05:42:03;;;;;;;2.05;1.25;;;19.80;50.20;;;;;;5122527;27;20168;-58
2020/12/11 05:44:34;;;;;;;1.75;1.00;;;19.80;50.30;;;;;;5119209;27;20032;-58
2020/12/11 05:47:24;;;;;;;1.20;0.95;;;19.80;50.30;;;;;;5128230;27;20171;-57
2020/12/11 05:49:50;;;;;;;1.60;1.00;;;19.80;50.30;;;;;;5123150;27;20015;-57
2020/12/11 05:52:18;;;;;;;1.50;1.05;;;19.80;50.30;;;;;;5131846;27;20450;-58
2020/12/11 05:54:45;;;;;;;1.55;1.13;;;19.80;50.40;;;;;;5115734;27;20030;-59
2020/12/11 05:57:14;;;;;;;1.88;0.93;;;19.80;50.40;;;;;;5120810;27;20305;-59
2020/12/11 05:59:40;;;;;;;1.30;1.00;;;19.80;50.40;;;;;;5116806;27;20489;-59
2020/12/11 06:02:06;;;;;;;1.90;1.00;;;19.80;50.40;;;;;;5130191;27;20621;-59
2020/12/11 06:04:32;;;;;;;1.40;0.90;;;19.80;50.40;;;;;;5122759;27;20025;-58
2020/12/11 06:06:58;;;;;;;2.05;1.10;;;19.80;50.50;;;;;;5123938;27;20019;-59
2020/12/11 06:09:33;;;;;;;1.98;1.25;;;19.70;50.40;;;;;;5128200;27;20088;-59
2020/12/11 06:12:00;;;;;;;1.58;1.10;;;19.70;50.40;;;;;;5129276;27;20050;-60
2020/12/11 06:14:48;;;;;;;1.88;1.10;;;19.80;50.50;;;;;;5117562;27;20031;-59
2020/12/11 06:17:15;;;;;;;1.60;1.00;;;19.70;50.50;;;;;;5130769;27;20050;-59
2020/12/11 06:19:44;;;;;;;1.33;1.00;;;19.70;50.60;;;;;;5112134;27;20027;-60
2020/12/11 06:22:10;;;;;;;1.77;1.00;;;19.80;50.60;;;;;;5127929;27;20366;-60
2020/12/11 06:24:36;;;;;;;2.20;1.00;;;19.80;50.60;;;;;;5135508;27;20122;-59
2020/12/11 06:27:03;;;;;;;1.40;0.98;;;19.70;50.60;;;;;;5111321;27;20046;-59
2020/12/11 06:29:34;;;;;;;2.40;1.30;;;19.70;50.60;;;;;;5114920;27;20109;-59
2020/12/11 06:32:00;;;;;;;1.95;1.10;;;19.70;50.60;;;;;;5126903;27;20026;-60
2020/12/11 06:34:26;;;;;;;2.13;1.10;;;19.70;50.60;;;;;;5133045;27;20050;-59
2020/12/11 06:36:53;;;;;;;1.77;1.00;;;19.70;50.60;;;;;;5128847;27;20500;-60
2020/12/11 06:39:54;;;;;;;1.85;1.30;;;19.70;50.70;;;;;;5136035;27;20038;-59
2020/12/11 06:42:39;;;;;;;2.03;1.10;;;19.70;50.70;;;;;;5043072;28;20096;-59
2020/12/11 06:45:21;;;;;;;1.40;1.00;;;19.70;50.70;;;;;;5113023;27;20043;-60
2020/12/11 06:47:48;;;;;;;1.65;1.08;;;19.70;50.70;;;;;;5116961;27;20284;-60
2020/12/11 06:50:14;;;;;;;2.70;1.20;;;19.70;50.70;;;;;;5131716;27;20030;-59
2020/12/11 06:52:39;;;;;;;2.10;1.05;;;19.70;50.70;;;;;;5116092;27;20324;-59
2020/12/11 06:55:05;;;;;;;1.60;1.00;;;19.70;50.70;;;;;;5131478;27;20031;-59
2020/12/11 06:57:36;;;;;;;1.58;1.00;;;19.70;50.70;;;;;;5133943;27;20023;-59
2020/12/11 07:00:30;;;;;;;1.83;1.10;;;19.70;50.80;;;;;;5134664;27;20027;-59
2020/12/11 07:03:25;;;;;;;2.53;1.00;;;19.70;50.70;;;;;;5124663;27;20038;-60
2020/12/11 07:06:04;;;;;;;1.85;0.98;;;19.70;50.70;;;;;;5124445;27;20047;-59
2020/12/11 07:08:31;;;;;;;2.03;1.10;;;19.70;50.70;;;;;;5118336;27;20110;-59
2020/12/11 07:11:07;;;;;;;1.55;1.00;;;19.70;50.80;;;;;;5134770;27;20042;-59
2020/12/11 07:13:35;;;;;;;1.52;0.90;;;19.70;50.80;;;;;;5136082;27;20035;-59
2020/12/11 07:16:01;;;;;;;2.80;1.00;;;19.70;50.70;;;;;;5123574;27;20425;-60
2020/12/11 07:18:27;;;;;;;1.83;1.10;;;19.70;50.70;;;;;;5132435;27;20027;-60
2020/12/11 07:20:57;;;;;;;1.50;1.00;;;19.60;50.70;;;;;;5119650;27;20076;-58
2020/12/11 07:23:24;;;;;;;1.38;0.95;;;19.70;50.80;;;;;;5136613;27;20545;-60
2020/12/11 07:25:51;;;;;;;2.05;1.20;;;19.70;50.80;;;;;;5130964;27;20034;-60
2020/12/11 07:28:17;;;;;;;1.85;0.90;;;19.60;50.80;;;;;;5131339;27;20061;-59
2020/12/11 07:30:46;;;;;;;1.33;0.90;;;19.60;50.70;;;;;;5117781;27;20365;-59
2020/12/11 07:33:12;;;;;;;;;;;19.60;50.70;;;;;;5112523;27;20037;-59
2020/12/11 07:35:47;;;;;;;2.20;0.93;;;19.60;50.70;;;;;;5119771;27;20214;-60
2020/12/11 07:38:14;;;;;;;2.25;1.23;;;19.70;51.30;;;;;;5120823;27;20079;-59
2020/12/11 07:40:40;;;;;;;2.42;1.10;;;19.60;50.70;;;;;;5126532;27;20045;-60
2020/12/11 07:43:09;;;;;;;1.45;0.80;;;19.60;50.70;;;;;;5126180;27;20023;-59
2020/12/11 07:45:36;;;;;;;1.20;0.90;;;19.60;50.70;;;;;;5121275;27;20169;-60
2020/12/11 07:48:03;;;;;;;1.42;0.90;;;19.60;50.70;;;;;;5115949;28;20046;-60
2020/12/11 07:50:30;;;;;;;2.03;1.10;;;19.60;50.70;;;;;;5123896;27;20071;-59
2020/12/11 07:52:57;;;;;;;1.58;0.88;;;19.60;50.70;;;;;;5120972;27;20015;-60
2020/12/11 07:55:26;;;;;;;1.38;0.80;;;19.60;50.70;;;;;;5115709;28;20111;-60
2020/12/11 07:57:54;;;;;;;2.67;1.02;;;19.60;50.70;;;;;;5127480;27;20038;-59
2020/12/11 08:00:20;;;;;;;1.60;0.90;;;19.60;50.70;;;;;;5126276;27;20050;-60
2020/12/11 08:02:57;;;;;;;1.30;0.90;;;19.60;50.70;;;;;;5125996;27;20023;-59
2020/12/11 08:05:24;;;;;;;1.67;1.00;;;19.60;50.70;;;;;;5119335;27;20042;-59
2020/12/11 08:07:54;;;;;;;1.35;0.90;;;19.60;50.70;;;;;;5124301;27;20542;-60
2020/12/11 08:10:22;;;;;;;1.48;1.00;;;19.60;50.70;;;;;;5126487;27;20023;-60
2020/12/11 08:12:48;;;;;;;1.92;1.10;;;19.60;50.60;;;;;;5125988;27;20039;-59
2020/12/11 08:15:31;;;;;;;1.42;0.93;;;19.60;50.70;;;;;;5114830;27;20032;-59
2020/12/11 08:18:20;;;;;;;1.77;1.10;;;19.60;50.60;;;;;;5113441;27;20039;-60
2020/12/11 08:20:50;;;;;;;1.33;1.00;;;19.60;50.70;;;;;;5112520;27;20023;-58
2020/12/11 08:23:19;;;;;;;2.22;1.00;;;19.60;50.70;;;;;;5128837;27;20022;-60
2020/12/11 08:25:45;;;;;;;1.52;0.80;;;19.60;50.70;;;;;;5118252;27;20099;-59
2020/12/11 08:28:11;;;;;;;1.80;0.90;;;19.60;50.60;;;;;;5131928;27;20044;-59
2020/12/11 08:30:36;;;;;;;1.48;0.80;;;19.60;50.70;;;;;;5124617;27;20160;-60
2020/12/11 08:33:10;;;;;;;2.20;1.00;;;19.60;50.70;;;;;;5116619;27;20032;-60
2020/12/11 08:35:36;;;;;;;2.10;1.00;;;19.60;50.70;;;;;;5124019;27;20031;-58
2020/12/11 08:38:05;;;;;;;1.42;1.00;;;19.60;50.70;;;;;;5114603;27;20043;-59
2020/12/11 08:40:31;;;;;;;1.20;0.80;;;19.60;50.70;;;;;;5122280;27;20139;-59
2020/12/11 08:51:39;;;;;;;1.50;0.90;;;19.60;50.70;;;;;;5122076;27;20043;-58
2020/12/11 08:54:08;;;;;;;2.35;0.90;;;19.60;50.70;;;;;;5132361;27;20035;-59
2020/12/11 08:56:34;;;;;;;1.75;1.00;;;19.60;50.70;;;;;;5125685;27;20028;-59
2020/12/11 08:59:00;;;;;;;1.27;0.90;;;19.60;50.70;;;;;;5138469;27;20131;-60
2020/12/11 09:01:25;;;;;;;1.00;0.80;;;19.60;50.70;;;;;;5136850;27;20031;-58
2020/12/11 09:03:51;;;;;;;1.75;0.80;;;19.50;50.70;;;;;;5133154;27;20016;-59
2020/12/11 09:06:17;;;;;;;1.80;0.98;;;19.60;50.70;;;;;;5133590;27;20054;-59
2020/12/11 09:08:42;;;;;;;1.05;0.90;;;19.50;50.70;;;;;;5125760;27;20059;-59
2020/12/11 09:11:08;;;;;;;1.40;0.90;;;19.60;50.70;;;;;;5119469;27;20027;-58
2020/12/11 09:13:34;;;;;;;2.05;1.00;;;19.60;50.70;;;;;;5124492;27;20096;-59
2020/12/11 09:15:59;;;;;;;2.10;0.73;;;19.60;50.80;;;;;;5125505;27;20110;-59
2020/12/11 09:18:25;;;;;;;1.90;0.82;;;19.50;50.70;;;;;;5130267;27;20746;-59
2020/12/11 09:20:50;;;;;;;1.58;0.90;;;19.50;50.70;;;;;;5128574;27;20107;-59
2020/12/11 09:23:16;;;;;;;1.40;0.90;;;19.60;50.70;;;;;;5123397;27;20033;-59
2020/12/11 09:25:41;;;;;;;1.77;1.00;;;19.50;50.70;;;;;;5120421;27;20612;-60
2020/12/11 09:28:13;;;;;;;1.75;0.80;;;19.60;51.40;;;;;;5120028;27;20230;-58
2020/12/11 09:30:40;;;;;;;2.58;1.00;;;19.60;51.70;;;;;;5127732;27;20031;-58
2020/12/11 09:33:11;;;;;;;1.45;1.00;;;19.70;51.20;;;;;;5125467;27;20511;-59
2020/12/11 09:35:37;;;;;;;2.50;1.20;;;19.80;51.00;;;;;;5116741;27;20054;-59
2020/12/11 09:38:04;;;;;;;2.03;1.30;;;20.00;50.70;;;;;;5130042;27;20073;-59
2020/12/11 09:51:09;;;;;;;2.15;1.23;;;20.60;49.40;;;;;;5123500;27;20447;-57
2020/12/11 09:56:28;;;;;;;1.70;1.15;;;20.90;49.00;;;;;;5115713;27;20023;-59
2020/12/11 09:59:16;;;;;;;1.73;1.20;;;21.00;48.60;;;;;;5120819;27;20060;-59
2020/12/11 10:04:11;;;;;;;1.80;1.38;;;21.20;48.20;;;;;;5120979;27;20493;-59
2020/12/11 10:06:37;;;;;;;2.00;1.10;;;21.30;48.10;;;;;;5110838;27;20030;-59
2020/12/11 10:09:02;;;;;;;2.75;1.40;;;21.40;48.00;;;;;;5113909;27;20046;-59
2020/12/11 10:11:28;;;;;;;2.75;1.33;;;21.50;47.70;;;;;;5111246;27;20886;-59
2020/12/11 10:14:10;;;;;;;2.85;1.30;;;21.60;47.50;;;;;;5126623;27;20034;-57
2020/12/11 10:16:35;;;;;;;1.90;1.20;;;21.70;47.50;;;;;;5108176;27;20092;-59
2020/12/11 10:19:01;;;;;;;2.03;1.27;;;21.80;47.30;;;;;;5102125;27;20027;-60
2020/12/11 10:21:29;;;;;;;2.50;1.30;;;21.90;47.20;;;;;;5100260;27;20406;-59
2020/12/11 10:23:54;;;;;;;2.42;1.10;;;21.90;47.20;;;;;;5114706;27;20181;-59
2020/12/11 10:26:20;;;;;;;2.13;1.23;;;22.10;47.00;;;;;;5108437;27;20047;-59
2020/12/11 10:28:45;;;;;;;3.38;1.20;;;22.10;46.90;;;;;;5104345;27;20065;-59
2020/12/11 10:31:11;;;;;;;2.72;1.30;;;22.20;46.70;;;;;;5115452;27;20497;-59
2020/12/11 10:33:37;;;;;;;2.35;1.35;;;22.30;46.60;;;;;;5122065;27;20031;-59
2020/12/11 10:36:02;;;;;;;2.03;1.20;;;22.30;46.50;;;;;;5117565;27;20040;-59
2020/12/11 10:38:28;;;;;;;2.22;1.40;;;22.30;46.50;;;;;;5122784;27;20034;-57
2020/12/11 10:40:53;;;;;;;1.80;1.30;;;22.40;46.40;;;;;;5115745;27;20032;-60
2020/12/11 10:43:19;;;;;;;1.75;1.10;;;22.40;46.40;;;;;;5118485;27;20137;-59
2020/12/11 10:45:45;;;;;;;2.22;1.27;;;22.30;46.40;;;;;;5125326;27;22069;-58
2020/12/11 10:48:10;;;;;;;1.95;1.08;;;22.30;46.60;;;;;;5121192;27;20035;-59
2020/12/11 10:50:36;;;;;;;1.60;1.08;;;22.20;46.70;;;;;;5135505;27;20042;-60
2020/12/11 10:53:01;;;;;;;1.90;1.30;;;22.20;46.70;;;;;;5108616;27;20034;-59
2020/12/11 10:55:27;;;;;;;2.28;1.35;;;22.10;46.80;;;;;;5107625;27;20084;-58
2020/12/11 10:57:53;;;;;;;1.65;1.20;;;22.10;46.80;;;;;;5110041;27;20521;-59
2020/12/11 11:00:19;;;;;;;3.25;1.30;;;22.10;46.80;;;;;;5110220;27;20027;-60
2020/12/11 11:02:44;;;;;;;1.52;1.20;;;22.10;46.90;;;;;;5115647;27;20026;-59
2020/12/11 11:05:11;;;;;;;2.63;1.23;;;22.10;47.00;;;;;;5112290;27;20035;-58
2020/12/11 11:07:36;;;;;;;2.30;1.23;;;22.00;47.10;;;;;;5117205;27;20027;-60
2020/12/11 11:12:40;;;;;;;2.03;1.10;;;22.00;47.20;;;;;;5107727;27;20416;-59
2020/12/11 11:20:20;;;;;;;2.05;1.10;;;21.90;47.30;;;;;;5108068;27;20394;-59
2020/12/11 11:22:57;;;;;;;3.28;1.45;;;21.90;47.30;;;;;;5089861;27;20462;-59
2020/12/11 11:28:06;;;;;;;1.75;1.20;;;21.80;47.30;;;;;;5112867;27;20393;-58
2020/12/11 11:30:33;;;;;;;2.90;1.30;;;21.80;47.30;;;;;;5105211;27;20035;-57
2020/12/11 11:32:58;;;;;;;1.65;1.10;;;21.90;47.40;;;;;;5122494;27;20358;-60
2020/12/11 11:35:25;;;;;;;2.85;1.45;;;21.80;47.40;;;;;;5106415;27;21067;-59
2020/12/11 11:37:51;;;;;;;1.85;1.20;;;21.80;47.40;;;;;;5109467;27;20038;-59
2020/12/11 11:40:17;;;;;;;1.77;1.20;;;21.80;47.30;;;;;;5099504;28;20019;-58
2020/12/11 11:42:43;;;;;;;2.35;1.60;;;21.80;47.30;;;;;;5113958;27;20099;-59
2020/12/11 11:45:13;;;;;;;1.95;1.25;;;21.80;47.30;;;;;;5110304;27;20043;-59
2020/12/11 11:47:41;;;;;;;2.83;1.50;;;21.80;47.40;;;;;;5116536;27;20732;-59
2020/12/11 11:50:24;;;;;;;2.08;1.30;;;21.80;47.30;;;;;;5111119;27;20039;-58
2020/12/11 11:55:21;;;;;;;2.85;1.45;;;21.80;47.40;;;;;;5111926;27;20035;-60
2020/12/11 11:57:46;;;;;;;2.28;1.35;;;21.80;47.40;;;;;;5110793;28;20473;-59
2020/12/11 12:00:12;;;;;;;2.17;1.35;;;21.80;47.40;;;;;;5110982;27;20035;-60
2020/12/11 12:02:38;;;;;;;2.17;1.50;;;21.80;47.50;;;;;;5115297;27;20317;-59
2020/12/11 12:05:05;;;;;;;3.17;1.50;;;21.70;47.40;;;;;;5124646;27;20069;-58
2020/12/11 12:07:32;;;;;;;2.22;1.30;;;21.70;47.50;;;;;;5117665;27;20097;-60
2020/12/11 12:09:58;;;;;;;2.35;1.35;;;21.70;47.60;;;;;;5124593;27;20031;-58
2020/12/11 12:12:24;;;;;;;2.40;1.42;;;21.70;47.60;;;;;;5113697;27;20027;-58
2020/12/11 12:14:51;;;;;;;2.13;1.38;;;21.70;47.70;;;;;;5109800;27;20035;-59
2020/12/11 12:17:19;;;;;;;2.45;1.30;;;21.60;47.60;;;;;;5120073;27;20090;-58
2020/12/11 12:19:48;;;;;;;3.08;1.40;;;21.60;47.70;;;;;;5123229;27;20487;-61
2020/12/11 12:29:52;;;;;;;2.78;1.50;;;21.90;47.90;;;;;;5123436;27;20310;-60
2020/12/11 12:32:20;;;;;;;2.38;1.45;;;22.10;47.50;;;;;;5118784;27;20034;-58
2020/12/11 12:34:50;;;;;;;2.28;1.42;;;22.30;47.20;;;;;;5118299;27;20103;-59
2020/12/11 12:44:48;;;;;;;2.30;1.45;;;22.80;46.40;;;;;;5113310;27;20031;-59
2020/12/11 12:47:14;;;;;;;2.85;1.70;;;22.80;46.10;;;;;;5123725;27;20031;-58
2020/12/11 12:49:40;;;;;;;2.00;1.20;;;22.70;46.20;;;;;;5121528;27;20382;-61
2020/12/11 12:52:05;;;;;;;1.70;1.20;;;22.60;46.60;;;;;;5114262;27;20031;-59
2020/12/11 12:54:31;;;;;;;1.40;1.10;;;22.50;46.80;;;;;;5120821;27;20037;-60
2020/12/11 12:57:00;;;;;;;1.70;1.10;;;22.50;47.00;;;;;;5109120;27;20030;-59
2020/12/11 12:59:44;;;;;;;1.38;0.98;;;22.50;47.20;;;;;;5120450;27;20679;-59
2020/12/11 13:04:41;;;;;;;1.80;1.20;;;22.50;47.40;;;;;;5116619;27;20027;-56
2020/12/11 13:07:07;;;;;;;1.50;0.95;;;22.60;47.60;;;;;;5114073;27;20453;-60
2020/12/11 13:09:35;;;;;;;1.25;1.00;;;22.60;47.60;;;;;;5120659;27;20125;-60
2020/12/11 13:12:02;;;;;;;1.88;1.20;;;22.60;47.70;;;;;;5119489;27;20034;-56
2020/12/11 13:14:27;;;;;;;2.40;1.58;;;22.60;47.70;;;;;;5118266;27;20042;-60
2020/12/11 13:16:53;;;;;;;2.55;1.58;;;22.60;47.60;;;;;;5116134;27;20379;-59
2020/12/11 13:19:22;;;;;;;3.53;1.70;;;22.60;47.50;;;;;;5127726;27;20042;-60
2020/12/11 13:22:16;;;;;;;3.42;1.85;;;22.50;47.40;;;;;;5116495;27;20024;-59
2020/12/11 13:27:26;;;;;;;2.67;1.60;;;22.50;47.40;;;;;;5118553;27;20047;-59
2020/12/11 13:29:53;;;;;;;3.10;1.70;;;22.50;47.50;;;;;;5125947;27;20027;-60
2020/12/11 13:32:19;;;;;;;3.70;1.90;;;22.40;47.50;;;;;;5122141;27;20071;-58
2020/12/11 13:34:45;;;;;;;2.70;1.90;;;22.40;47.60;;;;;;5117268;27;20142;-60
2020/12/11 13:37:11;;;;;;;2.60;1.60;;;22.40;47.70;;;;;;5113534;27;20026;-59
2020/12/11 13:39:37;;;;;;;3.47;1.95;;;22.30;47.60;;;;;;5114860;27;20088;-56
2020/12/11 13:42:03;;;;;;;2.63;1.60;;;22.30;47.80;;;;;;5131693;27;20165;-60
2020/12/11 13:44:29;;;;;;;2.70;2.00;;;22.40;47.80;;;;;;5123142;27;20122;-59
2020/12/11 13:46:55;;;;;;;3.78;1.90;;;22.60;47.50;;;;;;5126501;27;20110;-58
2020/12/11 13:49:20;;;;;;;3.95;2.00;;;22.80;47.30;;;;;;5126661;27;20157;-60